This demonstration page uses our WeatherBlox Daily Observations layout. Learn more.

41.55636, -103.73856

Hourly Observations for March 30, 2019

Temp ( °F °C ) Dew Point ( °F °C ) Humidity (%) Winds ( mph kmh ) Pressure ( in mb ) Visibility ( mi km ) Precip ( " mm )
12:58 am 00:58 Mostly Cloudy with Scattered Snow Showers 30 -0.9 29 -1.5 96 96 N 13 20 30.19 1022 3 4.82802 0.01 0.254
1:56 am 01:56 Mostly Cloudy with Scattered Snow Showers 30 -1 29 -1.6 96 96 N 15 24 30.22 1023 0.25 0.402335 0 0
2:56 am 02:56 Cloudy with Light Snow 30 -1.3 29 -1.9 96 96 NNE 10 17 30.24 1024 3 4.82802 0 0
3:56 am 03:56 Cloudy with Light Snow 29 -1.9 28 -2.5 96 96 NNE 15 24 30.3 1026 7 11.26538 0.01 0.254
4:58 am 04:58 Cloudy with Snow 28 -2.2 27 -2.9 95 95 NNE 12 19 30.32 1027 5 8.0467 0 0
5:58 am 05:58 Mostly Cloudy with Scattered Snow Showers 27 -2.6 26 -3.3 95 95 NNE 12 19 30.34 1028 1 1.60934 0.01 0.254
6:58 am 06:58 Mostly Cloudy with Scattered Snow Showers 27 -2.6 26 -3.3 95 95 N 12 19 30.35 1028 2 3.21868 0 0
7:58 am 07:58 Mostly Cloudy with Scattered Snow Showers 27 -2.6 26 -3.5 94 94 N 12 19 30.36 1028 1.75 2.816345 0 0
8:58 am 08:58 Mostly Cloudy with Scattered Snow Showers 28 -2.5 26 -3.2 95 95 NW 17 28 30.35 1028 10 16.0934 0 0
9:58 am 09:58 Mostly Cloudy with Light Snow Showers 27 -3 25 -4 93 93 NNW 15 24 30.37 1029 10 16.0934 0 0
10:58 am 10:58 Mostly Cloudy 26 -3.4 24 -4.5 92 92 NNW 15 24 30.4 1029 10 16.0934 0 0
11:58 am 11:58 Cloudy with Light Snow 27 -2.9 24 -4.4 90 90 NNW 13 20 30.42 1030 10 16.0934 0 0
2:58 pm 14:58 Mostly Cloudy with Light Snow Showers 27 -2.7 25 -3.7 93 93 NNW 10 17 30.49 1033 10 16.0934 0.01 0.254
3:58 pm 15:58 Mostly Cloudy 28 -2 25 -3.8 88 88 NNW 13 20 30.47 1032 10 16.0934 0 0
4:58 pm 16:58 Mostly Cloudy 29 -1.5 26 -3.4 87 87 N 12 19 30.49 1033 10 16.0934 0.01 0.254
5:58 pm 17:58 Mostly Cloudy 31 -0.5 25 -3.8 79 79 N 10 17 30.47 1032 10 16.0934 0 0
6:58 pm 18:58 Mostly Cloudy with Light Showers 33 0.3 25 -3.9 74 74 NNW 12 19 30.46 1031 10 16.0934 0 0
7:58 pm 19:58 Mostly Cloudy with Light Snow Showers 34 0.9 24 -4.3 69 69 NW 15 24 30.44 1031 10 16.0934 0 0
8:58 pm 20:58 Mostly Cloudy with Light Snow Showers 33 0.6 25 -4 72 72 N 12 19 30.42 1030 10 16.0934 0 0
9:58 pm 21:58 Mostly Cloudy 35 1.9 24 -4.4 63 63 NNW 14 22 30.4 1029 10 16.0934 0 0
10:58 pm 22:58 Mostly Cloudy 35 1.9 23 -5 61 61 NNW 13 20 30.42 1030 10 16.0934 0 0
11:58 pm 23:58 Mostly Cloudy 36 2.4 23 -4.9 59 59 N 13 20 30.4 1029 10 16.0934 0 0

Powered by AerisWeather